KSGR/SGR METAR and TAF weather

Enter ICAO airport designator
Station Type Date Time Source
KSGR METAR 2022/07/01 00:53 UTC NOAA

KSGR 010053Z 10007KT 10SM FEW018 SCT022 BKN027 27/23 A2995 RMK AO2 SLP143 T02670228


Station Type Date Time Source
KSGR Decoded METAR 2022/07/01 00:53 UTC NOAA

SUGARLAND REGIONAL AIRPORT, TX, United States (KSGR) 29-37N 095-39W
Jun 30, 2022 - 08:53 PM EDT / 2022.07.01 0053 UTC
Wind: from the E (100 degrees) at 8 MPH (7 KT):0
Visibility: 10 mile(s):0
Sky conditions: mostly cloudy
Temperature: 80.1 F (26.7 C)
Dew Point: 73.0 F (22.8 C)
Relative Humidity: 79%
Pressure (altimeter): 29.95 in. Hg (1014 hPa)
ob: KSGR 010053Z 10007KT 10SM FEW018 SCT022 BKN027 27/23 A2995 RMK AO2 SLP143 T02670228
cycle: 1

Station Type Date Time Source
KSGR TAF 2022/06/30 18:40 UTC NOAA

TAF KSGR 301738Z 3018/0118 11009KT P6SM VCSH SCT025 BKN100
TEMPO 3018/3020 BKN015
FM010000 13010KT P6SM SCT035 BKN080
FM010800 12008KT P6SM VCTS SCT020CB BKN080
FM011100 13008KT 6SM SHRA BR VCTS SCT015CB OVC030
FM011400 16010G19KT 6SM SHRA BR VCTS SCT015CB OVC025

Example: see airport list